Time;durP1;ratioP1;P1;durP2;ratioP2;P2;SDS_P1;SDS_P2;PMS_P1;PMS_P2;Temp;Humidity;BMP_temperature;BMP_pressure;BME280_temperature;BME280_humidity;BME280_pressure;Samples;Min_cycle;Max_cycle;Signal;HPM_P1;HPM_P2
2023/09/25 00:02:08;;;;;;;1.50;1.10;;;;;;;11.47;67.52;99746.41;5155671;27;41885;-79
2023/09/25 00:04:36;;;;;;;0.80;0.80;;;;;;;11.14;67.44;99690.66;5155197;27;41760;-81
2023/09/25 00:07:04;;;;;;;0.70;0.70;;;;;;;11.30;67.56;99722.53;5155342;27;42281;-80
2023/09/25 00:09:31;;;;;;;1.03;0.93;;;;;;;11.31;67.80;99729.56;5155903;27;40486;-79
2023/09/25 00:11:59;;;;;;;0.70;0.70;;;;;;;11.34;67.54;99744.47;5157415;27;42062;-79
2023/09/25 00:14:26;;;;;;;0.90;0.90;;;;;;;11.28;67.86;99724.41;5179574;27;42699;-80
2023/09/25 00:16:55;;;;;;;1.20;1.10;;;;;;;11.30;67.67;99733.16;5178593;27;42266;-79
2023/09/25 00:19:23;;;;;;;1.90;0.90;;;;;;;11.26;67.72;99726.28;5162007;27;38784;-80
2023/09/25 00:21:50;;;;;;;1.10;1.00;;;;;;;11.14;67.98;99711.00;5171797;27;41507;-79
2023/09/25 00:24:18;;;;;;;0.90;0.90;;;;;;;11.19;67.89;99726.69;5166526;27;44203;-79
2023/09/25 00:26:46;;;;;;;1.03;1.00;;;;;;;11.21;68.47;99733.63;5143700;27;41182;-80
2023/09/25 00:29:14;;;;;;;1.00;0.90;;;;;;;11.19;68.21;99735.50;5143176;27;39288;-79
2023/09/25 00:31:42;;;;;;;0.97;0.90;;;;;;;11.18;68.31;99730.25;5142452;27;40962;-80
2023/09/25 00:34:13;;;;;;;0.90;0.90;;;;;;;11.15;68.60;99713.56;5160077;27;41469;-79
2023/09/25 00:36:40;;;;;;;0.80;0.80;;;;;;;11.12;68.68;99719.06;5156497;27;42370;-79
2023/09/25 00:39:08;;;;;;;1.47;1.37;;;;;;;11.10;69.05;99705.00;5142796;27;40107;-79
2023/09/25 00:41:36;;;;;;;1.20;1.00;;;;;;;11.10;69.05;99720.91;5159259;27;41956;-80
2023/09/25 00:44:04;;;;;;;1.20;1.10;;;;;;;11.05;68.99;99717.63;5140852;27;42051;-80
2023/09/25 00:46:33;;;;;;;1.33;1.13;;;;;;;11.04;68.93;99713.25;5158986;27;43011;-79
2023/09/25 00:49:00;;;;;;;1.03;1.00;;;;;;;11.00;68.77;99719.66;5107107;27;38506;-79
2023/09/25 00:51:30;;;;;;;0.80;0.80;;;;;;;11.00;68.77;99724.13;5177150;27;41606;-80
2023/09/25 00:53:58;;;;;;;1.10;1.00;;;;;;;10.92;68.98;99721.84;5141186;27;42899;-80
2023/09/25 00:56:25;;;;;;;2.00;0.90;;;;;;;10.87;68.63;99713.28;5177451;27;42798;-80
2023/09/25 00:58:53;;;;;;;1.50;1.30;;;;;;;10.86;69.00;99722.16;5141174;27;40163;-79
2023/09/25 01:01:21;;;;;;;2.17;1.30;;;;;;;10.77;69.30;99723.44;5158449;27;41635;-80
2023/09/25 01:03:49;;;;;;;1.23;0.97;;;;;;;10.78;69.09;99726.97;5123904;27;41803;-80
2023/09/25 01:06:18;;;;;;;2.63;1.00;;;;;;;10.55;68.79;99696.31;5158885;27;43450;-80
2023/09/25 01:08:47;;;;;;;1.20;1.10;;;;;;;10.72;69.22;99729.94;5140835;27;39052;-80
2023/09/25 01:11:14;;;;;;;1.00;1.00;;;;;;;10.41;69.64;99683.72;5158335;27;40789;-79
2023/09/25 01:13:42;;;;;;;1.40;1.30;;;;;;;10.67;69.29;99731.94;5141542;27;41951;-80
2023/09/25 01:16:10;;;;;;;1.40;1.30;;;;;;;10.63;69.81;99725.09;5142217;27;41442;-79
2023/09/25 01:18:38;;;;;;;1.27;1.17;;;;;;;10.52;69.84;99712.34;5159569;27;39362;-80
2023/09/25 01:21:06;;;;;;;1.37;1.27;;;;;;;10.63;69.84;99722.44;5159189;27;41650;-79
2023/09/25 01:23:35;;;;;;;1.13;1.00;;;;;;;10.63;69.98;99725.09;5141345;27;42275;-79
2023/09/25 01:26:02;;;;;;;2.03;1.10;;;;;;;10.55;70.23;99717.50;5141290;27;41155;-80
2023/09/25 01:28:30;;;;;;;1.07;1.00;;;;;;;10.59;70.44;99723.50;5159126;27;41050;-80
2023/09/25 01:30:58;;;;;;;1.37;1.10;;;;;;;10.50;70.55;99705.41;5141621;27;40276;-80
2023/09/25 01:33:26;;;;;;;0.90;0.90;;;;;;;10.59;70.34;99723.50;5159341;27;43200;-80
2023/09/25 01:35:54;;;;;;;1.20;1.03;;;;;;;10.58;70.23;99719.13;5141341;27;41104;-80
2023/09/25 01:38:21;;;;;;;1.20;1.10;;;;;;;10.57;70.26;99722.72;5141917;27;39330;-80
2023/09/25 01:40:50;;;;;;;1.00;0.90;;;;;;;10.55;70.53;99728.09;5158954;27;42026;-80
2023/09/25 01:43:18;;;;;;;1.10;1.00;;;;;;;10.54;70.32;99722.84;5139576;27;41547;-81
2023/09/25 01:45:46;;;;;;;1.73;1.27;;;;;;;10.53;70.68;99726.44;5157646;27;42236;-80
2023/09/25 01:48:13;;;;;;;1.63;1.00;;;;;;;10.50;70.59;99716.88;5157990;27;39399;-80
2023/09/25 01:50:43;;;;;;;0.93;0.93;;;;;;;10.47;70.36;99718.81;5157461;27;41859;-80
2023/09/25 01:53:10;;;;;;;1.50;1.20;;;;;;;10.34;70.43;99703.50;5140029;27;41686;-80
2023/09/25 01:55:42;;;;;;;1.20;1.10;;;;;;;10.36;70.55;99706.94;5140221;27;42374;-80
2023/09/25 01:58:11;;;;;;;1.67;1.13;;;;;;;10.39;71.91;99712.06;5141182;27;39825;-80
2023/09/25 02:00:39;;;;;;;1.20;1.10;;;;;;;10.34;71.41;99711.44;5140402;27;41762;-80
2023/09/25 02:03:06;;;;;;;1.43;1.20;;;;;;;10.36;71.33;99717.53;5139830;27;42430;-80
2023/09/25 02:05:34;;;;;;;2.27;1.30;;;;;;;10.35;71.26;99709.66;5140577;27;42324;-80
2023/09/25 02:08:01;;;;;;;1.40;1.27;;;;;;;10.34;71.18;99710.59;5157680;27;39842;-80
2023/09/25 02:10:29;;;;;;;1.03;0.93;;;;;;;10.31;71.24;99708.94;5140096;27;42100;-81
2023/09/25 02:12:58;;;;;;;1.20;1.10;;;;;;;10.30;71.22;99719.59;5158027;27;42930;-80
2023/09/25 02:15:27;;;;;;;0.90;0.90;;;;;;;10.27;71.56;99712.66;5157979;27;42262;-80
2023/09/25 02:17:54;;;;;;;1.20;1.10;;;;;;;10.27;71.49;99715.31;5141469;27;40627;-80
2023/09/25 02:20:22;;;;;;;0.80;0.80;;;;;;;10.25;71.61;99719.84;5140954;27;40553;-80
2023/09/25 02:22:51;;;;;;;1.20;1.10;;;;;;;10.23;71.93;99705.81;5141069;27;41730;-80
2023/09/25 02:25:19;;;;;;;1.73;1.30;;;;;;;10.21;72.19;99707.66;5158593;27;42847;-80
2023/09/25 02:27:47;;;;;;;1.00;1.00;;;;;;;10.20;71.75;99705.94;5174513;27;40171;-80
2023/09/25 02:30:15;;;;;;;1.07;0.80;;;;;;;10.12;72.04;99708.06;5157233;27;42127;-80
2023/09/25 02:32:44;;;;;;;1.70;1.20;;;;;;;10.14;71.85;99702.72;5139573;27;41201;-80
2023/09/25 02:35:13;;;;;;;1.13;1.03;;;;;;;10.10;72.59;99699.34;5155627;27;42741;-80
2023/09/25 02:37:42;;;;;;;1.23;1.00;;;;;;;10.08;72.74;99695.91;5139229;27;39221;-80
2023/09/25 02:40:13;;;;;;;1.00;1.00;;;;;;;9.98;72.95;99689.34;5122077;27;41458;-80
2023/09/25 02:42:40;;;;;;;1.20;1.07;;;;;;;10.02;72.45;99691.75;5139080;27;42123;-80
2023/09/25 02:45:09;;;;;;;1.80;0.90;;;;;;;9.92;72.46;99685.19;5175606;27;42744;-80
2023/09/25 02:47:37;;;;;;;1.03;0.97;;;;;;;9.99;73.10;99697.22;5156878;27;40351;-80
2023/09/25 02:50:07;;;;;;;1.57;1.37;;;;;;;9.92;72.79;99692.25;5139835;27;40686;-80
2023/09/25 02:52:35;;;;;;;1.20;1.10;;;;;;;9.92;72.99;99687.81;5139422;27;41650;-80
2023/09/25 02:55:03;;;;;;;1.20;1.10;;;;;;;9.91;72.79;99687.88;5139716;27;42511;-80
2023/09/25 02:57:31;;;;;;;1.27;1.10;;;;;;;9.83;72.66;99687.41;5156210;27;39966;-80
2023/09/25 02:59:58;;;;;;;1.30;1.20;;;;;;;9.85;72.66;99698.78;5139083;27;41539;-80
2023/09/25 03:02:26;;;;;;;1.40;1.30;;;;;;;9.83;72.74;99700.63;5175028;27;44250;-80
2023/09/25 03:04:54;;;;;;;1.33;1.13;;;;;;;9.80;72.94;99695.47;5174753;27;42405;-79
2023/09/25 03:07:23;;;;;;;1.00;1.00;;;;;;;9.78;73.27;99697.31;5156303;27;41516;-79
2023/09/25 03:09:51;;;;;;;1.50;1.23;;;;;;;9.61;72.84;99669.88;5156561;27;40731;-79
2023/09/25 03:12:19;;;;;;;1.20;1.10;;;;;;;9.70;73.00;99695.91;5138962;27;42744;-79
2023/09/25 03:14:47;;;;;;;1.27;1.17;;;;;;;9.70;73.16;99695.03;5140185;27;41172;-79
2023/09/25 03:17:14;;;;;;;1.30;1.20;;;;;;;9.46;73.74;99654.69;5139622;27;38754;-80
2023/09/25 03:19:42;;;;;;;1.20;1.10;;;;;;;9.69;73.41;99694.19;5140520;27;40590;-80
2023/09/25 03:22:10;;;;;;;1.40;1.30;;;;;;;9.50;73.28;99660.72;5157428;27;42703;-79
2023/09/25 03:24:40;;;;;;;2.00;1.20;;;;;;;9.67;73.35;99700.47;5139905;27;42739;-79
2023/09/25 03:27:07;;;;;;;0.90;0.90;;;;;;;9.66;73.19;99699.59;5139563;27;39339;-79
2023/09/25 03:29:35;;;;;;;1.23;1.13;;;;;;;9.64;73.14;99701.44;5139800;27;40584;-80
2023/09/25 03:32:03;;;;;;;1.50;1.40;;;;;;;9.47;73.22;99674.94;5157189;27;43100;-79
2023/09/25 03:34:30;;;;;;;1.23;1.13;;;;;;;9.54;73.19;99694.84;5164489;27;42198;-79
2023/09/25 03:36:58;;;;;;;1.20;1.10;;;;;;;9.56;72.96;99698.31;5170228;27;39977;-79
2023/09/25 08:29:56;;;;;;;1.93;1.73;;;;;;;25.65;40.50;99816.69;5109182;28;20864;-89
2023/09/25 08:32:24;;;;;;;2.10;1.53;;;;;;;26.61;39.37;99805.88;5092150;28;39060;-84
2023/09/25 08:34:51;;;;;;;2.10;1.90;;;;;;;28.52;35.69;99847.59;5091210;28;40825;-84
2023/09/25 08:37:19;;;;;;;2.17;1.97;;;;;;;30.30;32.68;99871.53;5091161;28;42810;-84
2023/09/25 08:39:46;;;;;;;2.30;2.10;;;;;;;31.73;30.98;99874.47;5108650;28;43228;-83
2023/09/25 08:42:14;;;;;;;2.03;1.90;;;;;;;31.99;30.11;99883.78;5107067;28;38846;-81
2023/09/25 08:44:43;;;;;;;2.73;1.90;;;;;;;32.36;30.17;99874.09;5106457;28;40439;-84
2023/09/25 08:47:13;;;;;;;1.77;1.67;;;;;;;32.22;29.61;99865.03;5108330;28;42719;-84
2023/09/25 08:49:43;;;;;;;2.00;1.90;;;;;;;31.75;29.10;99844.97;5106670;28;42610;-83
2023/09/25 08:52:11;;;;;;;2.27;1.73;;;;;;;31.65;30.26;99866.41;5090053;28;39349;-80
2023/09/25 08:54:38;;;;;;;2.03;1.90;;;;;;;31.85;30.37;99865.63;5106833;28;41614;-85
2023/09/25 08:57:06;;;;;;;2.00;1.80;;;;;;;32.29;29.63;99863.13;5107088;28;42792;-82
2023/09/25 08:59:37;;;;;;;3.13;1.40;;;;;;;32.32;29.34;99870.94;5108089;28;42411;-83
2023/09/25 09:02:08;;;;;;;1.80;1.70;;;;;;;32.50;28.55;99842.88;5107372;28;39139;-86
2023/09/25 09:04:37;;;;;;;2.20;2.00;;;;;;;31.92;28.53;99871.94;5089919;28;40589;-86
2023/09/25 09:07:06;;;;;;;2.27;1.70;;;;;;;31.10;30.58;99833.78;5089951;28;41867;-85
2023/09/25 09:09:34;;;;;;;2.27;2.07;;;;;;;30.80;30.30;99825.84;5106615;28;42179;-82
2023/09/25 09:12:02;;;;;;;2.43;2.00;;;;;;;30.80;30.96;99844.97;5090360;28;38907;-85
2023/09/25 09:14:34;;;;;;;3.33;1.70;;;;;;;30.43;31.98;99845.34;5107800;28;41777;-86
2023/09/25 09:17:04;;;;;;;1.93;1.63;;;;;;;29.75;31.38;99835.94;5090973;28;41928;-87
2023/09/25 09:19:37;;;;;;;2.20;1.40;;;;;;;29.11;33.19;99831.22;5090612;28;41340;-85
2023/09/25 09:22:06;;;;;;;1.60;1.50;;;;;;;28.65;34.48;99814.25;5107803;28;39664;-83
2023/09/25 09:24:35;;;;;;;1.70;1.60;;;;;;;28.36;34.11;99825.13;5090562;28;40981;-79
2023/09/25 09:27:07;;;;;;;4.73;1.70;;;;;;;28.12;33.71;99824.31;5088716;28;43141;-81
2023/09/25 09:29:38;;;;;;;1.80;1.50;;;;;;;27.90;34.89;99803.41;5105660;28;42452;-82
2023/09/25 09:32:06;;;;;;;1.63;1.53;;;;;;;27.75;34.18;99821.59;5106197;28;39072;-85
2023/09/25 09:34:35;;;;;;;2.03;1.77;;;;;;;27.60;34.16;99820.66;5089411;28;40835;-85
2023/09/25 09:37:04;;;;;;;2.07;1.93;;;;;;;27.36;33.77;99805.34;5106368;28;43726;-83
2023/09/25 09:39:35;;;;;;;1.90;1.73;;;;;;;27.39;34.41;99814.00;5084626;28;41239;-83
2023/09/25 09:42:05;;;;;;;1.80;1.50;;;;;;;27.22;35.25;99804.22;5089687;28;39892;-83
2023/09/25 09:44:33;;;;;;;2.30;1.70;;;;;;;27.07;34.12;99817.78;5092611;28;41300;-81
2023/09/25 09:47:04;;;;;;;1.87;1.60;;;;;;;26.71;35.41;99778.47;5075491;28;42028;-84
2023/09/25 09:49:35;;;;;;;3.73;1.80;;;;;;;26.69;35.13;99807.72;5075354;28;41905;-84
2023/09/25 09:52:05;;;;;;;2.57;1.60;;;;;;;26.60;36.37;99798.72;5092521;28;40174;-84
2023/09/25 09:54:36;;;;;;;1.80;1.70;;;;;;;26.47;35.72;99801.16;5092681;28;41744;-83
2023/09/25 09:57:03;;;;;;;1.77;1.67;;;;;;;26.51;35.68;99805.22;5092409;28;42017;-85
2023/09/25 09:59:31;;;;;;;2.60;1.87;;;;;;;26.48;34.95;99789.25;5092450;28;42228;-85
2023/09/25 10:02:00;;;;;;;2.07;1.43;;;;;;;26.51;35.79;99785.34;5099591;28;39854;-79
2023/09/25 10:04:28;;;;;;;3.17;1.83;;;;;;;26.59;36.03;99802.47;5086733;28;40779;-80
2023/09/25 10:07:00;;;;;;;2.40;1.73;;;;;;;26.90;36.06;99788.09;5093090;28;43366;-86
2023/09/25 10:09:31;;;;;;;1.97;1.60;;;;;;;27.18;35.57;99770.28;5092267;28;41459;-86
2023/09/25 10:12:05;;;;;;;2.57;1.70;;;;;;;27.62;33.51;99797.69;5075118;28;39267;-79
2023/09/25 10:14:40;;;;;;;1.67;1.57;;;;;;;27.74;33.77;99788.06;5092319;28;41951;-79
2023/09/25 10:17:08;;;;;;;5.47;3.00;;;;;;;28.50;33.71;99800.59;5090177;28;44096;-78
2023/09/25 10:19:49;;;;;;;2.50;1.60;;;;;;;29.41;33.22;99796.56;5092721;28;41359;-79
2023/09/25 10:22:22;;;;;;;1.50;1.40;;;;;;;30.94;29.99;99802.13;5075069;28;39779;-82
2023/09/25 10:25:04;;;;;;;2.90;1.60;;;;;;;33.26;27.10;99831.28;5093245;28;42101;-81
2023/09/25 10:27:32;;;;;;;1.90;1.70;;;;;;;34.91;25.19;99836.28;5088825;28;42917;-84
2023/09/25 10:30:11;;;;;;;2.63;1.80;;;;;;;36.05;23.89;99842.78;5076015;28;42608;-84
2023/09/25 10:32:41;;;;;;;1.88;1.40;;;;;;;36.88;23.38;99834.28;5089841;28;39954;-83
2023/09/25 10:35:37;;;;;;;2.25;1.65;;;;;;;37.94;22.07;99847.50;5093069;28;41776;-84
2023/09/25 10:38:13;;;;;;;1.85;1.45;;;;;;;38.63;21.39;99848.09;5092574;28;41662;-86
2023/09/25 10:40:48;;;;;;;1.63;1.52;;;;;;;38.59;21.47;99844.16;5088743;28;43114;-83
2023/09/25 10:43:17;;;;;;;1.77;1.17;;;;;;;38.05;20.55;99841.06;5073795;28;39603;-81
2023/09/25 10:45:45;;;;;;;3.53;1.40;;;;;;;37.45;21.73;99802.06;5091588;28;41798;-81
2023/09/25 10:48:14;;;;;;;1.80;1.40;;;;;;;37.43;22.42;99807.00;5091312;28;43527;-86
2023/09/25 10:51:01;;;;;;;2.28;1.75;;;;;;;37.33;21.69;99795.75;5074421;28;41523;-88
2023/09/25 10:53:29;;;;;;;1.67;1.58;;;;;;;37.36;21.34;99823.72;5074266;28;39266;-86
2023/09/25 10:55:58;;;;;;;1.60;1.50;;;;;;;37.49;22.13;99816.22;5074721;28;41975;-89
2023/09/25 10:58:26;;;;;;;2.30;1.70;;;;;;;37.54;21.29;99811.63;5074598;28;42163;-87
2023/09/25 11:00:55;;;;;;;1.73;1.40;;;;;;;37.45;21.95;99806.75;5074702;28;41524;-86
2023/09/25 11:03:22;;;;;;;1.80;1.70;;;;;;;37.44;22.09;99807.84;5074432;28;40251;-87
2023/09/25 11:05:50;;;;;;;1.92;1.83;;;;;;;38.43;20.56;99812.63;5075025;28;40298;-85
2023/09/25 11:08:19;;;;;;;1.67;1.58;;;;;;;39.81;20.02;99823.50;5091257;28;42289;-83
2023/09/25 11:10:47;;;;;;;1.65;1.50;;;;;;;40.79;18.41;99815.66;5074464;28;41327;-83
2023/09/25 11:13:31;;;;;;;1.50;1.30;;;;;;;41.38;17.94;99827.31;5074595;28;39939;-87
2023/09/25 11:16:00;;;;;;;1.88;1.50;;;;;;;41.92;17.93;99812.91;5075740;28;41455;-86
2023/09/25 11:18:35;;;;;;;2.00;1.45;;;;;;;42.99;17.21;99817.25;5074594;28;41928;-88
2023/09/25 11:21:03;;;;;;;1.65;1.30;;;;;;;43.77;15.95;99813.75;5091783;28;42084;-83
2023/09/25 11:23:33;;;;;;;1.98;1.20;;;;;;;44.43;15.93;99801.19;5075524;28;38916;-87
2023/09/25 11:26:03;;;;;;;1.20;1.10;;;;;;;45.08;16.60;99806.03;5075346;28;40781;-83
2023/09/25 11:28:33;;;;;;;1.33;1.23;;;;;;;44.47;15.81;99775.16;5074559;28;43060;-84
2023/09/25 11:31:03;;;;;;;1.83;1.50;;;;;;;43.07;16.62;99801.03;5091664;28;41095;-85
2023/09/25 11:33:31;;;;;;;1.25;1.10;;;;;;;41.88;17.23;99786.78;5074736;28;39872;-82
2023/09/25 11:35:59;;;;;;;1.35;1.25;;;;;;;41.13;17.49;99786.38;5091094;28;43440;-84
2023/09/25 11:38:30;;;;;;;2.80;1.38;;;;;;;42.07;17.96;99765.63;5092900;28;43014;-83
2023/09/25 11:41:00;;;;;;;1.40;1.30;;;;;;;43.83;15.67;99797.81;5073798;28;41915;-82
2023/09/25 11:43:28;;;;;;;1.63;1.17;;;;;;;45.06;15.26;99794.28;5086727;28;40924;-81
2023/09/25 11:45:57;;;;;;;1.85;1.13;;;;;;;46.17;14.63;99785.31;5072615;28;41972;-83
2023/09/25 11:48:26;;;;;;;1.45;1.35;;;;;;;46.56;14.14;99782.09;5090723;28;43686;-84
2023/09/25 11:50:53;;;;;;;1.73;1.48;;;;;;;46.60;14.20;99790.72;5089894;28;42263;-81
2023/09/25 11:53:21;;;;;;;2.17;1.40;;;;;;;46.70;14.56;99784.91;5090165;28;38852;-81
2023/09/25 11:55:48;;;;;;;1.50;1.40;;;;;;;47.18;13.96;99793.72;5090124;28;42743;-82
2023/09/25 11:58:16;;;;;;;2.13;1.42;;;;;;;47.62;13.43;99792.13;5073138;28;41861;-81
2023/09/25 12:00:44;;;;;;;1.50;1.30;;;;;;;47.75;13.97;99778.06;5091213;28;41984;-81
2023/09/25 12:03:13;;;;;;;1.60;1.48;;;;;;;47.86;13.23;99796.31;5072905;28;38481;-87
2023/09/25 12:05:41;;;;;;;2.33;1.52;;;;;;;48.13;13.02;99769.25;5090311;28;43257;-84
2023/09/25 12:08:12;;;;;;;1.40;1.30;;;;;;;48.35;13.61;99774.78;5073251;28;42895;-86
2023/09/25 12:10:39;;;;;;;1.30;1.20;;;;;;;48.55;13.14;99779.06;5089944;28;42077;-82
2023/09/25 12:13:08;;;;;;;2.58;1.45;;;;;;;48.61;13.17;99765.66;5090739;28;41014;-80
2023/09/25 12:15:36;;;;;;;2.38;1.35;;;;;;;48.24;13.58;99762.19;5090810;28;42362;-84
2023/09/25 12:18:04;;;;;;;1.38;1.27;;;;;;;47.87;13.65;99749.38;5091040;28;42903;-85
2023/09/25 12:20:37;;;;;;;0.93;0.93;;;;;;;47.43;13.75;99753.84;5073303;28;41597;-85
2023/09/25 12:23:04;;;;;;;1.45;1.35;;;;;;;46.80;14.09;99734.22;5090627;28;38952;-83
2023/09/25 12:25:32;;;;;;;1.05;0.98;;;;;;;46.12;13.79;99755.41;5091034;28;41712;-84
2023/09/25 12:27:59;;;;;;;1.95;1.38;;;;;;;45.40;14.28;99752.13;5088219;28;43187;-81
2023/09/25 12:30:27;;;;;;;1.52;1.42;;;;;;;44.39;15.42;99725.50;5089578;28;42388;-86
2023/09/25 12:33:00;;;;;;;1.17;1.08;;;;;;;43.43;15.80;99720.78;5072655;28;40275;-87
2023/09/25 12:35:28;;;;;;;1.70;1.60;;;;;;;42.55;16.12;99729.88;5072947;28;41983;-85
2023/09/25 12:37:57;;;;;;;1.65;1.55;;;;;;;41.64;16.84;99725.28;5072892;28;42924;-84
2023/09/25 12:40:25;;;;;;;1.70;1.60;;;;;;;40.57;17.21;99699.13;5072565;28;42337;-83
2023/09/25 12:42:52;;;;;;;1.27;1.15;;;;;;;39.99;17.21;99716.84;5072723;28;38949;-83
2023/09/25 12:45:23;;;;;;;1.40;1.30;;;;;;;39.54;17.49;99711.75;5091059;28;41582;-88
2023/09/25 12:47:51;;;;;;;1.55;1.45;;;;;;;39.75;17.62;99685.84;5073423;28;41946;-86
2023/09/25 12:50:24;;;;;;;1.40;1.30;;;;;;;40.77;17.60;99710.38;5072518;28;41348;-89
2023/09/25 12:52:52;;;;;;;1.67;1.45;;;;;;;41.62;16.47;99715.56;5072273;28;38785;-87
2023/09/25 12:55:21;;;;;;;1.23;1.13;;;;;;;42.02;15.83;99687.72;5072799;28;40923;-92
2023/09/25 12:57:50;;;;;;;1.40;1.30;;;;;;;42.38;15.96;99682.06;5072548;28;42299;-92
2023/09/25 13:03:50;;;;;;;1.48;1.38;;;;;;;42.74;15.94;99694.69;5071186;28;39302;-87
2023/09/25 13:06:20;;;;;;;1.63;1.52;;;;;;;42.64;15.97;99683.63;5072097;28;40972;-85
2023/09/25 13:08:53;;;;;;;1.50;1.40;;;;;;;42.57;15.88;99713.72;5090360;28;42895;-87
2023/09/25 13:11:22;;;;;;;1.50;1.40;;;;;;;41.91;16.52;99702.72;5072288;28;41281;-91
2023/09/25 13:13:50;;;;;;;1.65;1.55;;;;;;;41.26;17.03;99665.47;5090222;28;39268;-81
2023/09/25 13:16:18;;;;;;;1.45;1.23;;;;;;;41.06;17.01;99701.53;5088180;28;40747;-84
2023/09/25 13:18:45;;;;;;;1.50;1.35;;;;;;;40.51;18.27;99689.13;5094056;28;41772;-85
2023/09/25 13:21:13;;;;;;;1.60;1.50;;;;;;;39.96;17.76;99701.56;5093338;28;43293;-84
2023/09/25 13:23:40;;;;;;;1.60;1.50;;;;;;;39.40;18.64;99687.22;5095170;28;40341;-82
2023/09/25 13:26:08;;;;;;;1.90;1.60;;;;;;;39.10;18.94;99684.16;5077448;28;41076;-84
2023/09/25 13:28:41;;;;;;;1.52;1.42;;;;;;;38.62;18.36;99676.66;5094265;28;42709;-86
2023/09/25 13:31:08;;;;;;;1.67;1.58;;;;;;;38.45;18.60;99690.56;5076836;28;42256;-83
2023/09/25 13:33:36;;;;;;;1.98;1.40;;;;;;;38.36;19.40;99665.25;5093171;28;38995;-82
2023/09/25 13:36:05;;;;;;;1.98;1.60;;;;;;;38.48;19.01;99678.97;5094130;28;42407;-87
2023/09/25 13:38:33;;;;;;;2.40;1.65;;;;;;;38.53;18.37;99687.38;5076393;28;42232;-87
2023/09/25 13:43:45;;;;;;;1.60;1.50;;;;;;;38.51;18.65;99675.69;5074511;28;40975;-84
2023/09/25 13:46:13;;;;;;;1.48;1.38;;;;;;;38.18;18.28;99664.75;5092968;28;40883;-84
2023/09/25 13:48:42;;;;;;;1.80;1.30;;;;;;;37.91;19.57;99651.63;5075221;28;41413;-87
2023/09/25 13:51:14;;;;;;;1.55;1.45;;;;;;;38.00;19.93;99668.59;5058569;28;41492;-88
2023/09/25 13:53:42;;;;;;;1.63;1.30;;;;;;;37.67;19.46;99653.75;5075563;28;39845;-83
2023/09/25 13:56:09;;;;;;;1.60;1.50;;;;;;;37.30;19.83;99645.09;5092854;28;40962;-84
2023/09/25 13:58:37;;;;;;;2.50;1.50;;;;;;;37.28;19.79;99665.78;5075021;28;42933;-84
2023/09/25 14:01:06;;;;;;;1.48;1.40;;;;;;;37.29;20.25;99661.94;5075279;28;41324;-89
2023/09/25 14:03:33;;;;;;;1.40;1.30;;;;;;;37.24;19.67;99665.44;5075381;28;38940;-83
2023/09/25 14:06:05;;;;;;;2.67;1.58;;;;;;;37.10;20.38;99657.69;5075091;28;40982;-82
2023/09/25 14:08:33;;;;;;;1.40;1.30;;;;;;;36.96;20.70;99635.09;5092361;28;43233;-83
2023/09/25 14:11:00;;;;;;;1.60;1.50;;;;;;;36.91;20.51;99644.09;5075253;28;41376;-82
2023/09/25 14:13:28;;;;;;;2.28;1.60;;;;;;;36.61;21.00;99630.53;5092609;28;40699;-83
2023/09/25 14:15:56;;;;;;;1.45;1.23;;;;;;;36.52;20.24;99640.28;5092824;28;42587;-82
2023/09/25 14:18:26;;;;;;;1.70;1.48;;;;;;;36.21;20.93;99611.22;5093090;28;42763;-81
2023/09/25 14:20:54;;;;;;;1.60;1.50;;;;;;;36.12;21.39;99623.69;5075366;28;41036;-80
2023/09/25 14:23:21;;;;;;;2.40;1.53;;;;;;;35.68;20.79;99605.03;5075855;28;40077;-84
2023/09/25 14:25:49;;;;;;;1.60;1.50;;;;;;;35.28;21.64;99600.22;5094239;28;42076;-86
2023/09/25 14:28:16;;;;;;;1.37;1.30;;;;;;;35.00;21.96;99589.84;5075328;28;41446;-85
2023/09/25 14:30:44;;;;;;;1.60;1.50;;;;;;;34.81;21.90;99621.28;5075954;28;41549;-84
2023/09/25 14:33:12;;;;;;;2.07;1.53;;;;;;;34.35;21.96;99600.75;5090860;28;39824;-84
2023/09/25 14:35:42;;;;;;;2.03;1.70;;;;;;;34.03;22.11;99607.44;5074902;28;40895;-84
2023/09/25 14:38:09;;;;;;;1.63;1.50;;;;;;;33.57;22.66;99614.28;5074707;28;42345;-84
2023/09/25 14:40:37;;;;;;;1.80;1.40;;;;;;;33.11;23.12;99610.00;5092653;28;42291;-83
2023/09/25 14:43:04;;;;;;;1.30;1.20;;;;;;;32.65;23.93;99601.19;5091687;28;39037;-84
2023/09/25 14:45:32;;;;;;;3.77;1.50;;;;;;;32.24;24.05;99602.50;5092663;28;42077;-83
2023/09/25 14:48:00;;;;;;;2.57;1.63;;;;;;;31.70;24.77;99594.63;5092677;28;44026;-81
2023/09/25 14:50:27;;;;;;;1.77;1.13;;;;;;;31.19;25.99;99588.97;5091734;28;40917;-86
2023/09/25 14:52:56;;;;;;;1.37;1.27;;;;;;;30.45;26.14;99537.09;5091523;28;40270;-82
2023/09/25 14:55:24;;;;;;;1.50;1.40;;;;;;;30.32;26.69;99574.25;5091205;28;41927;-84
2023/09/25 14:57:51;;;;;;;1.47;1.37;;;;;;;30.03;27.56;99568.28;5091466;28;41885;-88
2023/09/25 15:00:19;;;;;;;1.63;1.50;;;;;;;29.87;28.02;99581.22;5091376;28;42185;-84
2023/09/25 15:02:47;;;;;;;1.33;1.23;;;;;;;29.26;27.79;99520.97;5074608;28;39912;-82
2023/09/25 15:05:14;;;;;;;2.13;1.40;;;;;;;29.32;28.26;99576.63;5074322;28;42013;-83
2023/09/25 15:07:42;;;;;;;1.57;1.47;;;;;;;29.01;28.61;99562.53;5091010;28;44426;-83
2023/09/25 15:10:11;;;;;;;1.77;1.60;;;;;;;28.79;29.29;99562.56;5091276;28;42227;-82
2023/09/25 15:12:39;;;;;;;1.87;1.23;;;;;;;28.69;29.44;99570.16;5091515;28;39747;-82
2023/09/25 15:15:07;;;;;;;2.70;1.17;;;;;;;28.44;29.78;99569.72;5091861;28;41843;-85
2023/09/25 15:17:35;;;;;;;2.90;1.20;;;;;;;28.06;30.01;99550.00;5093086;28;43017;-83
2023/09/25 15:20:05;;;;;;;2.50;1.70;;;;;;;27.95;30.25;99553.19;5074924;28;42055;-83
2023/09/25 15:22:33;;;;;;;1.70;1.13;;;;;;;27.76;30.87;99553.78;5074704;28;39166;-81
2023/09/25 15:25:00;;;;;;;1.63;1.47;;;;;;;27.50;31.39;99546.06;5091644;28;43494;-80
2023/09/25 15:27:29;;;;;;;2.07;1.40;;;;;;;27.32;31.47;99543.72;5091613;28;43447;-80
2023/09/25 15:29:57;;;;;;;2.47;1.50;;;;;;;26.93;31.51;99505.03;5074439;28;42074;-81
2023/09/25 15:32:25;;;;;;;1.40;1.23;;;;;;;26.88;32.23;99518.28;5091730;28;40400;-82
2023/09/25 15:34:52;;;;;;;2.00;1.40;;;;;;;26.81;32.23;99532.63;5090256;28;41699;-82
2023/09/25 15:37:22;;;;;;;1.80;1.30;;;;;;;26.58;32.47;99529.06;5089543;28;41593;-83
2023/09/25 15:39:49;;;;;;;2.27;1.60;;;;;;;26.40;32.45;99521.22;5073956;28;42490;-80
2023/09/25 15:42:17;;;;;;;1.60;1.40;;;;;;;26.21;32.75;99515.41;5091709;28;40709;-83
2023/09/25 15:44:46;;;;;;;1.27;1.13;;;;;;;26.20;33.33;99535.44;5091622;28;41836;-83
2023/09/25 15:47:34;;;;;;;1.30;1.20;;;;;;;25.96;33.53;99512.84;5090094;28;41863;-87
2023/09/25 15:50:21;;;;;;;1.60;1.47;;;;;;;25.89;33.79;99528.13;5073976;28;41205;-91
2023/09/25 15:52:50;;;;;;;2.50;1.50;;;;;;;25.76;33.84;99526.00;5074074;28;39310;-88
2023/09/25 15:57:59;;;;;;;1.97;1.87;;;;;;;25.20;34.29;99478.22;5073247;28;42071;-88
2023/09/25 16:00:29;;;;;;;1.63;1.53;;;;;;;25.27;34.06;99506.31;5073729;28;42144;-87
2023/09/25 16:02:57;;;;;;;1.77;1.43;;;;;;;25.05;34.53;99477.22;5056916;28;38400;-87
2023/09/25 16:05:24;;;;;;;1.40;1.30;;;;;;;25.20;34.67;99516.16;5073222;28;41344;-87
2023/09/25 16:07:52;;;;;;;1.80;1.70;;;;;;;25.04;34.82;99502.63;5073173;28;41901;-86
2023/09/25 16:10:19;;;;;;;1.73;1.43;;;;;;;25.04;34.70;99511.63;5073254;28;41397;-85
2023/09/25 16:12:47;;;;;;;1.67;1.50;;;;;;;24.86;35.09;99496.53;5073611;28;38726;-83
2023/09/25 16:15:14;;;;;;;2.30;2.10;;;;;;;24.83;35.85;99521.28;5092284;28;41736;-85
2023/09/25 16:17:43;;;;;;;2.20;2.10;;;;;;;24.63;36.22;99501.78;5074372;28;41703;-86
2023/09/25 16:20:11;;;;;;;2.53;1.90;;;;;;;24.32;36.25;99471.84;5073898;28;41507;-83
2023/09/25 16:22:39;;;;;;;2.60;2.40;;;;;;;24.45;36.11;99504.69;5075405;28;39844;-84
2023/09/25 16:25:07;;;;;;;2.13;2.03;;;;;;;24.35;36.22;99509.44;5093802;28;41594;-81
2023/09/25 16:27:35;;;;;;;2.80;1.80;;;;;;;23.92;36.85;99454.50;5087391;28;41767;-84
2023/09/25 16:30:10;;;;;;;2.07;1.90;;;;;;;24.03;36.41;99493.09;5091241;28;41020;-84
2023/09/25 16:32:38;;;;;;;1.73;1.63;;;;;;;24.17;36.46;99522.22;5087936;28;40123;-81
2023/09/25 16:35:08;;;;;;;2.60;2.40;;;;;;;24.04;37.13;99514.56;5090069;28;41744;-84
2023/09/25 16:37:36;;;;;;;2.37;2.17;;;;;;;23.99;37.06;99525.88;5089702;28;43454;-82
2023/09/25 16:40:04;;;;;;;2.80;2.60;;;;;;;23.74;37.07;99494.34;5089769;28;42160;-84
2023/09/25 16:42:31;;;;;;;3.50;3.20;;;;;;;23.82;37.21;99524.16;5090904;28;40804;-79